createdAt,value
2022-11-25T00:13:55.152Z,69.20
2022-11-25T00:28:57.027Z,81.70
2022-11-25T00:43:57.625Z,74.30
2022-11-25T00:58:58.395Z,81.70
2022-11-25T01:14:01.692Z,84.00
2022-11-25T01:29:04.106Z,73.30
2022-11-25T01:44:03.748Z,75.50
2022-11-25T01:59:05.581Z,96.70
2022-11-25T02:14:07.478Z,66.50
2022-11-25T02:29:08.444Z,103.60
2022-11-25T02:44:09.039Z,120.30
2022-11-25T02:59:09.684Z,100.90
2022-11-25T03:14:09.276Z,86.70
2022-11-25T03:29:11.201Z,82.50
2022-11-25T03:44:11.790Z,90.70
2022-11-25T03:59:14.229Z,73.00
2022-11-25T04:14:14.913Z,86.40
2022-11-25T04:29:15.529Z,81.90
2022-11-25T04:44:17.387Z,64.10
2022-11-25T04:59:17.540Z,75.90
2022-11-25T05:14:18.176Z,70.30
2022-11-25T05:29:20.806Z,64.10
2022-11-25T05:44:23.210Z,82.40
2022-11-25T05:59:25.373Z,71.10
2022-11-25T06:14:27.272Z,61.90
2022-11-25T06:29:28.625Z,74.20
2022-11-25T06:44:29.942Z,69.90
2022-11-25T06:59:31.353Z,55.60
2022-11-25T07:14:35.325Z,57.40
2022-11-25T07:30:18.814Z,79.70
2022-11-25T07:44:45.154Z,340.40
2022-11-25T07:59:46.651Z,326.90
2022-11-25T08:14:48.784Z,259.30
2022-11-25T08:29:49.607Z,245.60
2022-11-25T08:44:50.598Z,301.90
2022-11-25T08:59:51.150Z,327.90
2022-11-25T09:14:53.613Z,297.90
2022-11-25T09:29:55.405Z,250.30
2022-11-25T09:44:57.678Z,174.90
2022-11-25T09:59:58.939Z,128.20
2022-11-25T10:14:59.450Z,130.60
2022-11-25T10:30:00.875Z,109.10
2022-11-25T10:45:02.763Z,112.20
2022-11-25T11:00:04.656Z,97.90
2022-11-25T11:15:04.795Z,107.20
2022-11-25T11:30:05.475Z,84.20
2022-11-25T11:45:06.969Z,64.20
2022-11-25T12:00:08.777Z,61.50
2022-11-25T12:15:10.363Z,56.00
2022-11-25T12:30:11.886Z,51.20
2022-11-25T12:45:16.426Z,65.60
2022-11-25T13:00:46.053Z,60.60
2022-11-25T13:15:22.609Z,59.10
2022-11-25T13:30:25.597Z,54.40
2022-11-25T13:45:27.928Z,61.80
2022-11-25T14:00:29.690Z,64.50
2022-11-25T14:15:31.371Z,49.10
2022-11-25T14:30:34.511Z,59.00
2022-11-25T14:45:34.884Z,54.40
2022-11-25T15:00:35.535Z,59.00
2022-11-25T15:15:36.470Z,55.40
2022-11-25T15:30:39.051Z,58.50
2022-11-25T15:45:41.913Z,57.30
2022-11-25T16:00:44.141Z,60.80
2022-11-25T16:15:45.458Z,65.90
2022-11-25T16:30:48.154Z,63.60
2022-11-25T16:45:49.987Z,71.50
2022-11-25T17:00:50.797Z,77.10
2022-11-25T17:15:52.698Z,77.10
2022-11-25T17:30:55.133Z,76.80
2022-11-25T17:45:58.168Z,68.50
2022-11-25T18:00:59.972Z,86.50
2022-11-25T18:16:00.468Z,88.40
2022-11-25T18:31:02.225Z,78.50
2022-11-25T18:46:04.016Z,82.70
2022-11-25T19:01:05.447Z,84.50
2022-11-25T19:16:06.007Z,88.30
2022-11-25T19:31:08.126Z,98.80
2022-11-25T19:46:09.879Z,79.50
2022-11-25T20:01:12.650Z,104.00
2022-11-25T20:16:14.487Z,94.80
2022-11-25T20:31:16.416Z,90.40
2022-11-25T20:46:20.053Z,79.20
2022-11-25T21:01:19.946Z,81.60
2022-11-25T21:16:21.369Z,89.80
2022-11-25T21:31:22.838Z,66.30
2022-11-25T21:46:24.053Z,79.30
2022-11-25T22:01:25.391Z,100.60
2022-11-25T22:16:27.355Z,75.00
2022-11-25T22:31:29.229Z,60.20
2022-11-25T22:46:31.234Z,33.30
2022-11-25T23:01:31.887Z,50.00
2022-11-25T23:16:34.317Z,80.20
2022-11-25T23:31:36.737Z,75.30
2022-11-25T23:46:38.548Z,72.30
